Mora, MN (55051)

9:43 AM CDT on July 04, 2015 (GMT -0500)
West Mora | | Change Station
CLOSE
Current Station
Personal Weather Station
Location: Mora, MN
Elevation: 1056 ft
Nearby Weather Stations

Elev 1056 ft 45.90 °N, 93.38 °W | Updated 11 minutes ago

Clear
Clear
76.5 °F
Feels Like 78 °F
N
0.0
Wind Variable Wind from NNE

Today
High -- | Low -- °F
--% Chance of Precip.
Yesterday
High -- | Low -- °F
Precip. -- in
5:28 AM 9:06 PM
Waning Gibbous, 92% visible
Pressure 29.97 in
Visibility 7.0 miles
Clouds Clear
Heat Index 78 °F
Dew Point 64 °F
Humidity 65%
Rainfall 0.00 in
Snow Depth Not available.
UV 5 out of 12
Pollen 4.50 out of 12
Air Quality Not available.
Flu Activity Not available.
METAR KJMR 041435Z AUTO 00000KT 7SM CLR 21/16 A2997 RMK AO2

More Conditions Fewer Conditions

Pressure 29.97 in
Visibility 7.0 miles
Clouds Clear
Heat Index 78 °F
Dew Point 64 °F
Humidity 65%
Rainfall 0.00 in
Snow Depth Not available.
UV 5 out of 12
Pollen 4.50 out of 12
Air Quality Not available.
Flu Activity Not available.
METAR KJMR 041435Z AUTO 00000KT 7SM CLR 21/16 A2997 RMK AO2

More Conditions Fewer Conditions

10-Day Weather Forecast

×

Almanac

Astronomy

Jul. 04, 2015 Rise Set
Actual Time
Civil Twilight
Nautical Twilight
Astronomical Twilight
Moon
Length of Visible Light
Length of Day
Tomorrow will be .
, % of the Moon is Illuminated

Today's Extremes

State Highs State Lows

Community

WunderPhotos

Upload Photos

1,834,982 photos uploaded!

WunderBlogs® & News

Nearby

Air Quality

  Air Quality AQ Index Pollutant
Not available.

Snow Depth

Station Depth Elevation

Earthquake Activity

City Distance Mag. Time & Date
Minimum magnitude displayed is 2.5.

Coastal Water Temperatures

Place Temperature

Stations

Nearby Weather Stations

Station Location Temp. Windchill Dew Point Humidity Wind Precip. Elev Updated Type